createdAt,value
2023-03-23T00:00:38.000Z,6.51612903225806
2023-03-23T00:03:20.000Z,6.51612903225806
2023-03-23T00:06:02.000Z,6.51612903225806
2023-03-23T00:08:43.000Z,6.51612903225806
2023-03-23T00:11:25.000Z,6.51612903225806
2023-03-23T00:14:09.000Z,6.51612903225806
2023-03-23T00:16:53.000Z,6.51612903225806
2023-03-23T00:19:38.000Z,6.51612903225806
2023-03-23T00:22:19.000Z,6.51612903225806
2023-03-23T00:25:01.000Z,6.51612903225806
2023-03-23T00:27:43.000Z,6.51612903225806
2023-03-23T00:30:26.000Z,6.51612903225806
2023-03-23T00:33:09.000Z,6.51612903225806
2023-03-23T00:35:56.000Z,6.51612903225806
2023-03-23T00:38:38.000Z,6.51612903225806
2023-03-23T00:41:19.000Z,6.51612903225806
2023-03-23T00:44:01.000Z,6.51612903225806
2023-03-23T00:46:44.000Z,6.51612903225806
2023-03-23T00:49:28.000Z,6.51612903225806
2023-03-23T00:52:11.000Z,6.51612903225806
2023-03-23T00:54:53.000Z,6.51612903225806
2023-03-23T00:57:36.000Z,6.51612903225806
2023-03-23T01:00:17.000Z,6.51612903225806
2023-03-23T01:02:59.000Z,6.612903225806447
2023-03-23T01:05:45.000Z,6.51612903225806
2023-03-23T01:08:28.000Z,6.612903225806447
2023-03-23T01:11:10.000Z,6.51612903225806
2023-03-23T01:13:53.000Z,6.612903225806447
2023-03-23T01:16:33.000Z,6.51612903225806
2023-03-23T01:19:17.000Z,6.51612903225806
2023-03-23T01:22:01.000Z,6.51612903225806
2023-03-23T01:24:44.000Z,6.51612903225806
2023-03-23T01:27:24.000Z,6.51612903225806
2023-03-23T01:30:09.000Z,6.322580645161286
2023-03-23T01:32:53.000Z,6.225806451612899
2023-03-23T01:35:39.000Z,6.129032258064512
2023-03-23T01:38:25.000Z,6.129032258064512
2023-03-23T01:41:09.000Z,6.032258064516125
2023-03-23T01:43:52.000Z,6.032258064516125
2023-03-23T01:46:34.000Z,6.032258064516125
2023-03-23T01:49:20.000Z,6.032258064516125
2023-03-23T01:52:04.000Z,6.032258064516125
2023-03-23T01:54:45.000Z,6.032258064516125
2023-03-23T01:57:31.000Z,5.9354838709677376
2023-03-23T02:00:16.000Z,6.129032258064512
2023-03-23T02:02:57.000Z,5.8387096774193505
2023-03-23T02:05:38.000Z,7.096774193548382
2023-03-23T02:08:20.000Z,8.064516129032253
2023-03-23T02:11:02.000Z,7.967741935483865
2023-03-23T02:13:44.000Z,7.774193548387091
2023-03-23T02:16:34.000Z,7.870967741935478
2023-03-23T02:19:17.000Z,7.677419354838704
2023-03-23T02:22:01.000Z,7.870967741935478
2023-03-23T02:24:42.000Z,7.870967741935478
2023-03-23T02:27:27.000Z,7.870967741935478
2023-03-23T02:30:08.000Z,7.774193548387091
2023-03-23T02:32:50.000Z,7.870967741935478
2023-03-23T02:35:37.000Z,7.967741935483865
2023-03-23T02:38:19.000Z,7.967741935483865
2023-03-23T02:41:03.000Z,7.870967741935478
2023-03-23T02:43:43.000Z,7.870967741935478
2023-03-23T02:46:27.000Z,7.870967741935478
2023-03-23T02:49:10.000Z,7.967741935483865
2023-03-23T02:51:54.000Z,8.064516129032253
2023-03-23T02:54:37.000Z,7.870967741935478
2023-03-23T02:57:18.000Z,7.870967741935478
2023-03-23T03:00:00.000Z,7.774193548387091
2023-03-23T03:02:43.000Z,7.967741935483865
2023-03-23T03:05:34.000Z,7.870967741935478
2023-03-23T03:08:21.000Z,7.870967741935478
2023-03-23T03:11:06.000Z,7.870967741935478
2023-03-23T03:13:47.000Z,7.967741935483865
2023-03-23T03:16:30.000Z,7.870967741935478
2023-03-23T03:19:10.000Z,7.967741935483865
2023-03-23T03:21:52.000Z,7.967741935483865
2023-03-23T03:24:36.000Z,7.870967741935478
2023-03-23T03:27:25.000Z,7.870967741935478
2023-03-23T03:30:09.000Z,8.064516129032253
2023-03-23T03:32:54.000Z,7.870967741935478
2023-03-23T03:35:37.000Z,7.870967741935478
2023-03-23T03:38:19.000Z,7.870967741935478
2023-03-23T03:41:01.000Z,7.870967741935478
2023-03-23T03:43:44.000Z,7.967741935483865
2023-03-23T03:46:28.000Z,8.064516129032253
2023-03-23T03:49:13.000Z,8.548387096774192
2023-03-23T03:51:57.000Z,8.16129032258064
2023-03-23T03:54:39.000Z,8.258064516129028
2023-03-23T03:57:26.000Z,8.548387096774192
2023-03-23T04:00:10.000Z,8.258064516129028
2023-03-23T04:02:51.000Z,8.258064516129028
2023-03-23T04:05:33.000Z,8.548387096774192
2023-03-23T04:08:17.000Z,8.548387096774192
2023-03-23T04:10:59.000Z,8.451612903225804
2023-03-23T04:13:43.000Z,8.258064516129028
2023-03-23T04:16:25.000Z,8.354838709677416
2023-03-23T04:19:09.000Z,8.354838709677416
2023-03-23T04:21:56.000Z,8.258064516129028
2023-03-23T04:24:37.000Z,8.16129032258064
2023-03-23T04:27:17.000Z,8.354838709677416
2023-03-23T04:30:00.000Z,8.258064516129028
2023-03-23T04:32:49.000Z,8.258064516129028
2023-03-23T04:35:30.000Z,8.258064516129028
2023-03-23T04:38:11.000Z,8.451612903225804
2023-03-23T04:41:00.000Z,8.16129032258064
2023-03-23T04:43:42.000Z,7.967741935483865
2023-03-23T04:46:26.000Z,8.354838709677416
2023-03-23T04:49:07.000Z,8.64516129032258
2023-03-23T04:51:51.000Z,8.451612903225804
2023-03-23T04:54:33.000Z,8.451612903225804
2023-03-23T04:57:17.000Z,8.258064516129028
2023-03-23T05:00:07.000Z,8.451612903225804
2023-03-23T05:02:51.000Z,8.451612903225804
2023-03-23T05:05:33.000Z,8.451612903225804
2023-03-23T05:08:23.000Z,8.838709677419356
2023-03-23T05:11:03.000Z,8.838709677419356
2023-03-23T05:13:44.000Z,8.838709677419356
2023-03-23T05:16:28.000Z,8.354838709677416
2023-03-23T05:19:10.000Z,8.548387096774192
2023-03-23T05:21:55.000Z,8.64516129032258
2023-03-23T05:24:36.000Z,8.838709677419356
2023-03-23T05:27:18.000Z,8.548387096774192
2023-03-23T05:29:59.000Z,8.354838709677416
2023-03-23T05:32:42.000Z,8.451612903225804
2023-03-23T05:35:27.000Z,8.451612903225804
2023-03-23T05:38:10.000Z,8.258064516129028
2023-03-23T05:40:52.000Z,8.935483870967744
2023-03-23T05:43:33.000Z,8.451612903225804
2023-03-23T05:46:15.000Z,9.032258064516132
2023-03-23T05:49:04.000Z,8.935483870967744
2023-03-23T05:51:44.000Z,8.935483870967744
2023-03-23T05:54:33.000Z,9.032258064516132
2023-03-23T05:57:19.000Z,9.419354838709683
2023-03-23T06:00:01.000Z,8.741935483870968
2023-03-23T06:02:44.000Z,8.354838709677416
2023-03-23T06:05:27.000Z,8.548387096774192
2023-03-23T06:08:15.000Z,8.838709677419356
2023-03-23T06:10:58.000Z,9.12903225806452
2023-03-23T06:13:46.000Z,8.935483870967744
2023-03-23T06:16:29.000Z,8.258064516129028
2023-03-23T06:19:12.000Z,8.258064516129028
2023-03-23T06:21:57.000Z,8.258064516129028
2023-03-23T06:24:42.000Z,8.741935483870968
2023-03-23T06:27:26.000Z,8.64516129032258
2023-03-23T06:30:08.000Z,8.935483870967744
2023-03-23T06:32:51.000Z,8.354838709677416
2023-03-23T06:35:37.000Z,8.451612903225804
2023-03-23T06:38:26.000Z,8.741935483870968
2023-03-23T06:41:12.000Z,8.16129032258064
2023-03-23T06:43:57.000Z,8.064516129032253
2023-03-23T06:46:37.000Z,8.258064516129028
2023-03-23T06:49:18.000Z,8.548387096774192
2023-03-23T06:52:02.000Z,8.064516129032253
2023-03-23T06:54:44.000Z,8.16129032258064
2023-03-23T06:57:27.000Z,8.258064516129028
2023-03-23T07:00:11.000Z,8.935483870967744
2023-03-23T07:02:50.000Z,8.258064516129028
2023-03-23T07:05:33.000Z,8.451612903225804
2023-03-23T07:08:15.000Z,8.64516129032258
2023-03-23T07:10:57.000Z,8.548387096774192
2023-03-23T07:13:41.000Z,8.64516129032258
2023-03-23T07:16:27.000Z,8.64516129032258
2023-03-23T07:19:10.000Z,8.451612903225804
2023-03-23T07:21:52.000Z,8.838709677419356
2023-03-23T07:24:36.000Z,8.16129032258064
2023-03-23T07:27:19.000Z,8.16129032258064
2023-03-23T07:30:02.000Z,8.258064516129028
2023-03-23T07:32:44.000Z,8.354838709677416
2023-03-23T07:35:37.000Z,8.354838709677416
2023-03-23T07:38:20.000Z,8.354838709677416
2023-03-23T07:41:02.000Z,8.64516129032258
2023-03-23T07:43:42.000Z,8.64516129032258
2023-03-23T07:46:24.000Z,8.16129032258064
2023-03-23T07:49:08.000Z,8.258064516129028
2023-03-23T07:51:54.000Z,8.258064516129028
2023-03-23T07:54:38.000Z,8.354838709677416
2023-03-23T07:57:18.000Z,8.64516129032258
2023-03-23T07:59:59.000Z,8.741935483870968
2023-03-23T08:02:43.000Z,8.548387096774192
2023-03-23T08:05:26.000Z,8.64516129032258
2023-03-23T08:08:10.000Z,8.548387096774192
2023-03-23T08:10:52.000Z,8.64516129032258
2023-03-23T08:13:33.000Z,8.741935483870968
2023-03-23T08:16:14.000Z,8.838709677419356
2023-03-23T08:19:05.000Z,8.741935483870968
2023-03-23T08:21:46.000Z,8.935483870967744
2023-03-23T08:24:29.000Z,8.258064516129028
2023-03-23T08:27:11.000Z,8.258064516129028
2023-03-23T08:29:52.000Z,8.548387096774192
2023-03-23T08:32:32.000Z,8.451612903225804
2023-03-23T08:35:17.000Z,8.451612903225804
2023-03-23T08:37:58.000Z,8.354838709677416
2023-03-23T08:40:42.000Z,8.16129032258064
2023-03-23T08:43:24.000Z,8.258064516129028
2023-03-23T08:46:06.000Z,8.258064516129028
2023-03-23T08:48:45.000Z,8.258064516129028
2023-03-23T08:51:28.000Z,8.258064516129028
2023-03-23T08:54:16.000Z,8.354838709677416
2023-03-23T08:57:02.000Z,8.354838709677416
2023-03-23T08:59:43.000Z,8.354838709677416
2023-03-23T09:02:27.000Z,8.451612903225804
2023-03-23T09:05:10.000Z,8.548387096774192
2023-03-23T09:07:51.000Z,8.548387096774192
2023-03-23T09:10:38.000Z,8.64516129032258
2023-03-23T09:13:21.000Z,8.64516129032258
2023-03-23T09:16:01.000Z,8.64516129032258
2023-03-23T09:18:43.000Z,8.548387096774192
2023-03-23T09:21:27.000Z,8.548387096774192
2023-03-23T09:24:10.000Z,8.451612903225804
2023-03-23T09:26:58.000Z,8.451612903225804
2023-03-23T09:29:43.000Z,8.064516129032253
2023-03-23T09:32:26.000Z,7.967741935483865
2023-03-23T09:35:10.000Z,7.870967741935478
2023-03-23T09:37:50.000Z,7.870967741935478
2023-03-23T09:40:38.000Z,7.967741935483865
2023-03-23T09:43:20.000Z,7.967741935483865
2023-03-23T09:46:03.000Z,7.870967741935478
2023-03-23T09:48:44.000Z,7.967741935483865
2023-03-23T09:51:27.000Z,7.967741935483865
2023-03-23T09:54:10.000Z,7.967741935483865
2023-03-23T09:56:51.000Z,7.967741935483865
2023-03-23T09:59:33.000Z,7.774193548387091
2023-03-23T10:02:16.000Z,7.677419354838704
2023-03-23T10:04:56.000Z,7.580645161290317
2023-03-23T10:07:46.000Z,7.580645161290317
2023-03-23T10:10:29.000Z,7.580645161290317
2023-03-23T10:13:11.000Z,7.580645161290317
2023-03-23T10:15:52.000Z,7.48387096774193
2023-03-23T10:18:33.000Z,7.48387096774193
2023-03-23T10:21:14.000Z,7.580645161290317
2023-03-23T10:23:57.000Z,7.580645161290317
2023-03-23T10:26:42.000Z,7.580645161290317
2023-03-23T10:29:22.000Z,7.677419354838704
2023-03-23T10:32:03.000Z,7.774193548387091
2023-03-23T10:34:44.000Z,7.774193548387091
2023-03-23T10:37:36.000Z,7.677419354838704
2023-03-23T10:40:18.000Z,7.677419354838704
2023-03-23T10:42:57.000Z,7.774193548387091
2023-03-23T10:45:39.000Z,7.677419354838704
2023-03-23T10:48:19.000Z,7.774193548387091
2023-03-23T10:51:06.000Z,7.677419354838704
2023-03-23T10:53:45.000Z,7.677419354838704
2023-03-23T10:56:32.000Z,7.677419354838704
2023-03-23T10:59:14.000Z,7.870967741935478
2023-03-23T11:01:56.000Z,8.064516129032253
2023-03-23T11:04:41.000Z,8.548387096774192
2023-03-23T11:07:23.000Z,8.548387096774192
2023-03-23T11:10:07.000Z,8.451612903225804
2023-03-23T11:12:55.000Z,8.354838709677416
2023-03-23T11:15:39.000Z,8.354838709677416
2023-03-23T11:18:19.000Z,8.354838709677416
2023-03-23T11:21:01.000Z,8.258064516129028
2023-03-23T11:23:52.000Z,8.16129032258064
2023-03-23T11:26:36.000Z,8.16129032258064
2023-03-23T11:29:18.000Z,8.258064516129028
2023-03-23T11:32:01.000Z,8.258064516129028
2023-03-23T11:34:50.000Z,8.354838709677416
2023-03-23T11:37:32.000Z,8.354838709677416
2023-03-23T11:40:13.000Z,8.548387096774192
2023-03-23T11:42:56.000Z,8.354838709677416
2023-03-23T11:45:40.000Z,8.354838709677416
2023-03-23T11:48:21.000Z,8.354838709677416
2023-03-23T11:51:06.000Z,8.354838709677416
2023-03-23T11:53:51.000Z,8.354838709677416
2023-03-23T11:56:37.000Z,8.451612903225804
2023-03-23T11:59:20.000Z,8.258064516129028
2023-03-23T12:02:03.000Z,8.354838709677416
2023-03-23T12:04:44.000Z,8.548387096774192
2023-03-23T12:07:28.000Z,7.870967741935478
2023-03-23T12:10:11.000Z,8.838709677419356
2023-03-23T12:13:01.000Z,8.838709677419356
2023-03-23T12:15:42.000Z,8.16129032258064
2023-03-23T12:18:27.000Z,8.741935483870968
2023-03-23T12:21:10.000Z,9.032258064516132
2023-03-23T12:23:51.000Z,8.838709677419356
2023-03-23T12:26:32.000Z,8.64516129032258
2023-03-23T12:29:14.000Z,8.64516129032258
2023-03-23T12:31:58.000Z,8.64516129032258
2023-03-23T12:34:44.000Z,8.741935483870968
2023-03-23T12:37:28.000Z,8.741935483870968
2023-03-23T12:40:10.000Z,8.838709677419356
2023-03-23T12:42:54.000Z,8.838709677419356
2023-03-23T12:45:36.000Z,8.838709677419356
2023-03-23T12:48:19.000Z,8.838709677419356
2023-03-23T12:51:01.000Z,8.838709677419356
2023-03-23T12:53:42.000Z,9.12903225806452
2023-03-23T12:56:25.000Z,8.16129032258064
2023-03-23T12:59:20.000Z,8.451612903225804
2023-03-23T13:02:02.000Z,8.741935483870968
2023-03-23T13:04:43.000Z,7.967741935483865
2023-03-23T13:07:30.000Z,9.322580645161295
2023-03-23T13:10:10.000Z,9.612903225806459
2023-03-23T13:12:52.000Z,11.645161290322605
2023-03-23T13:15:35.000Z,12.32258064516132
2023-03-23T13:18:19.000Z,5.9354838709677376
2023-03-23T13:21:01.000Z,6.032258064516125
2023-03-23T13:23:42.000Z,6.612903225806447
2023-03-23T13:26:25.000Z,6.419354838709673
2023-03-23T13:29:08.000Z,18.032258064516206
2023-03-23T13:31:53.000Z,17.45161290322588
2023-03-23T13:34:37.000Z,18.80645161290331
2023-03-23T13:37:18.000Z,22.38709677419366
2023-03-23T13:40:01.000Z,18.032258064516206
2023-03-23T13:42:43.000Z,16.774193548387164
2023-03-23T13:45:27.000Z,12.903225806451648
2023-03-23T13:48:15.000Z,13.870967741935527
2023-03-23T13:50:58.000Z,12.419354838709708
2023-03-23T13:53:42.000Z,18.419354838709758
2023-03-23T13:56:25.000Z,19.77419354838719
2023-03-23T13:59:07.000Z,14.451612903225854
2023-03-23T14:01:49.000Z,12.612903225806484
2023-03-23T14:04:30.000Z,19.096774193548473
2023-03-23T14:07:13.000Z,11.354838709677441
2023-03-23T14:09:56.000Z,11.935483870967769
2023-03-23T14:12:42.000Z,5.4516129032258025
2023-03-23T14:15:29.000Z,12.225806451612932
2023-03-23T14:18:12.000Z,11.354838709677441
2023-03-23T14:20:57.000Z,13.000000000000036
2023-03-23T14:23:43.000Z,10.096774193548399
2023-03-23T14:26:26.000Z,12.903225806451648
2023-03-23T14:29:06.000Z,9.709677419354847
2023-03-23T14:31:49.000Z,20.935483870967843
2023-03-23T14:34:33.000Z,16.193548387096836
2023-03-23T14:37:19.000Z,20.258064516129128
2023-03-23T14:40:00.000Z,21.903225806451722
2023-03-23T14:42:43.000Z,14.741935483871018
2023-03-23T14:45:29.000Z,16.193548387096836
2023-03-23T14:48:10.000Z,16.87096774193555
2023-03-23T14:50:54.000Z,16.677419354838776
2023-03-23T14:53:34.000Z,16.387096774193612
2023-03-23T14:56:14.000Z,22.96774193548399
2023-03-23T14:58:56.000Z,14.16129032258069
2023-03-23T15:01:38.000Z,19.870967741935576
2023-03-23T15:04:18.000Z,19.000000000000085
2023-03-23T15:07:00.000Z,16.580645161290388
2023-03-23T15:09:44.000Z,21.225806451613007
2023-03-23T15:12:28.000Z,21.61290322580656
2023-03-23T15:15:11.000Z,19.096774193548473
2023-03-23T15:17:53.000Z,21.709677419354946
2023-03-23T15:20:35.000Z,15.709677419354897
2023-03-23T15:23:20.000Z,17.548387096774267
2023-03-23T15:26:05.000Z,24.516129032258196
2023-03-23T15:28:44.000Z,21.225806451613007
2023-03-23T15:31:30.000Z,22.00000000000011
2023-03-23T15:34:13.000Z,21.225806451613007
2023-03-23T15:36:58.000Z,21.51612903225817
2023-03-23T15:39:40.000Z,19.967741935483964
2023-03-23T15:42:27.000Z,11.45161290322583
2023-03-23T15:45:11.000Z,13.580645161290363
2023-03-23T15:47:53.000Z,11.064516129032278
2023-03-23T15:50:34.000Z,18.70967741935492
2023-03-23T15:53:18.000Z,15.322580645161345
2023-03-23T15:56:01.000Z,14.935483870967794
2023-03-23T15:58:45.000Z,15.419354838709733
2023-03-23T16:01:27.000Z,15.903225806451672
2023-03-23T16:04:08.000Z,21.903225806451722
2023-03-23T16:06:50.000Z,16.483870967742
2023-03-23T16:09:32.000Z,6.032258064516125
2023-03-23T16:12:14.000Z,13.000000000000036
2023-03-23T16:15:01.000Z,6.999999999999995
2023-03-23T16:17:44.000Z,12.516129032258096
2023-03-23T16:20:27.000Z,13.000000000000036
2023-03-23T16:23:14.000Z,11.548387096774217
2023-03-23T16:25:56.000Z,18.903225806451697
2023-03-23T16:28:44.000Z,22.677419354838825
2023-03-23T16:31:28.000Z,22.38709677419366
2023-03-23T16:34:09.000Z,23.161290322580765
2023-03-23T16:36:53.000Z,22.00000000000011
2023-03-23T16:39:38.000Z,21.903225806451722
2023-03-23T16:42:23.000Z,25.19354838709691
2023-03-23T16:45:05.000Z,24.032258064516256
2023-03-23T16:47:46.000Z,20.54838709677429
2023-03-23T16:50:29.000Z,13.387096774193587
2023-03-23T16:53:15.000Z,23.258064516129153
2023-03-23T16:55:57.000Z,21.12903225806462
2023-03-23T16:58:38.000Z,22.48387096774205
2023-03-23T17:01:18.000Z,21.709677419354946
2023-03-23T17:04:00.000Z,21.12903225806462
2023-03-23T17:06:43.000Z,24.419354838709808
2023-03-23T17:09:29.000Z,25.387096774193687
2023-03-23T17:12:12.000Z,24.419354838709808
2023-03-23T17:14:54.000Z,22.38709677419366
2023-03-23T17:17:37.000Z,20.741935483871067
2023-03-23T17:20:26.000Z,21.61290322580656
2023-03-23T17:23:09.000Z,23.548387096774317
2023-03-23T17:25:53.000Z,21.709677419354946
2023-03-23T17:28:36.000Z,21.419354838709783
2023-03-23T17:31:18.000Z,22.48387096774205
2023-03-23T17:33:58.000Z,22.774193548387213
2023-03-23T17:36:47.000Z,23.935483870967868
2023-03-23T17:39:30.000Z,23.83870967741948
2023-03-23T17:42:17.000Z,23.35483870967754
2023-03-23T17:45:00.000Z,25.387096774193687
2023-03-23T17:47:45.000Z,23.45161290322593
2023-03-23T17:50:29.000Z,24.32258064516142
2023-03-23T17:53:11.000Z,23.161290322580765
2023-03-23T17:55:52.000Z,24.129032258064644
2023-03-23T17:58:35.000Z,23.935483870967868
2023-03-23T18:01:17.000Z,10.096774193548399
2023-03-23T18:04:01.000Z,23.935483870967868
2023-03-23T18:06:43.000Z,24.612903225806583
2023-03-23T18:09:25.000Z,26.935483870967893
2023-03-23T18:12:09.000Z,22.774193548387213
2023-03-23T18:14:54.000Z,26.064516129032402
2023-03-23T18:17:36.000Z,25.580645161290462
2023-03-23T18:20:21.000Z,21.419354838709783
2023-03-23T18:23:03.000Z,29.45161290322598
2023-03-23T18:25:43.000Z,21.12903225806462
2023-03-23T18:28:25.000Z,17.83870967741943
2023-03-23T18:31:09.000Z,23.35483870967754
2023-03-23T18:33:53.000Z,19.096774193548473
2023-03-23T18:36:38.000Z,20.354838709677516
2023-03-23T18:39:18.000Z,19.870967741935576
2023-03-23T18:42:02.000Z,22.096774193548498
2023-03-23T18:44:43.000Z,21.322580645161395
2023-03-23T18:47:27.000Z,22.290322580645274
2023-03-23T18:50:15.000Z,22.8709677419356
2023-03-23T18:52:58.000Z,17.741935483871043
2023-03-23T18:55:41.000Z,12.129032258064544
2023-03-23T18:58:24.000Z,12.32258064516132
2023-03-23T19:01:05.000Z,11.741935483870993
2023-03-23T19:03:47.000Z,15.419354838709733
2023-03-23T19:06:30.000Z,15.12903225806457
2023-03-23T19:09:14.000Z,16.774193548387164
2023-03-23T19:11:58.000Z,13.2903225806452
2023-03-23T19:14:41.000Z,13.483870967741975
2023-03-23T19:17:23.000Z,13.483870967741975
2023-03-23T19:20:05.000Z,13.387096774193587
2023-03-23T19:22:44.000Z,12.129032258064544
2023-03-23T19:25:24.000Z,20.838709677419455
2023-03-23T19:28:06.000Z,13.580645161290363
2023-03-23T19:30:51.000Z,13.580645161290363
2023-03-23T19:33:36.000Z,15.903225806451672
2023-03-23T19:36:17.000Z,18.419354838709758
2023-03-23T19:38:57.000Z,22.096774193548498
2023-03-23T19:41:42.000Z,19.000000000000085
2023-03-23T19:44:25.000Z,22.38709677419366
2023-03-23T19:47:05.000Z,14.935483870967794
2023-03-23T19:49:45.000Z,22.96774193548399
2023-03-23T19:52:28.000Z,18.903225806451697
2023-03-23T19:55:11.000Z,16.290322580645224
2023-03-23T19:57:52.000Z,17.741935483871043
2023-03-23T20:00:33.000Z,20.451612903225904
2023-03-23T20:03:18.000Z,21.03225806451623
2023-03-23T20:06:02.000Z,20.16129032258074
2023-03-23T20:08:44.000Z,12.129032258064544
2023-03-23T20:11:29.000Z,21.225806451613007
2023-03-23T20:14:08.000Z,16.87096774193555
2023-03-23T20:16:51.000Z,13.2903225806452
2023-03-23T20:19:32.000Z,12.80645161290326
2023-03-23T20:22:16.000Z,12.516129032258096
2023-03-23T20:24:58.000Z,13.774193548387139
2023-03-23T20:27:42.000Z,13.387096774193587
2023-03-23T20:30:24.000Z,12.612903225806484
2023-03-23T20:33:05.000Z,11.258064516129053
2023-03-23T20:35:46.000Z,11.548387096774217
2023-03-23T20:38:31.000Z,14.451612903225854
2023-03-23T20:41:15.000Z,16.387096774193612
2023-03-23T20:43:57.000Z,15.709677419354897
2023-03-23T20:46:40.000Z,16.96774193548394
2023-03-23T20:49:22.000Z,20.64516129032268
2023-03-23T20:52:07.000Z,20.16129032258074
2023-03-23T20:54:50.000Z,20.935483870967843
2023-03-23T20:57:32.000Z,22.096774193548498
2023-03-23T21:00:12.000Z,19.6774193548388
2023-03-23T21:02:54.000Z,20.451612903225904
2023-03-23T21:05:38.000Z,22.580645161290438
2023-03-23T21:08:19.000Z,18.903225806451697
2023-03-23T21:11:04.000Z,13.483870967741975
2023-03-23T21:13:43.000Z,12.612903225806484
2023-03-23T21:16:27.000Z,18.129032258064594
2023-03-23T21:19:10.000Z,19.19354838709686
2023-03-23T21:21:51.000Z,17.645161290322655
2023-03-23T21:24:34.000Z,18.70967741935492
2023-03-23T21:27:14.000Z,18.612903225806534
2023-03-23T21:29:55.000Z,16.774193548387164
2023-03-23T21:32:37.000Z,21.806451612903334
2023-03-23T21:35:19.000Z,19.096774193548473
2023-03-23T21:38:01.000Z,19.483870967742025
2023-03-23T21:40:42.000Z,19.580645161290413
2023-03-23T21:43:25.000Z,18.032258064516206
2023-03-23T21:46:05.000Z,17.645161290322655
2023-03-23T21:48:44.000Z,18.032258064516206
2023-03-23T21:51:27.000Z,19.096774193548473
2023-03-23T21:54:10.000Z,18.225806451612982
2023-03-23T21:56:53.000Z,20.258064516129128
2023-03-23T21:59:37.000Z,21.322580645161395
2023-03-23T22:02:19.000Z,13.870967741935527
2023-03-23T22:05:06.000Z,14.064516129032302
2023-03-23T22:07:46.000Z,19.483870967742025
2023-03-23T22:10:30.000Z,19.870967741935576
2023-03-23T22:13:16.000Z,12.903225806451648
2023-03-23T22:15:57.000Z,18.612903225806534
2023-03-23T22:18:43.000Z,19.483870967742025
2023-03-23T22:21:26.000Z,10.387096774193562
2023-03-23T22:24:11.000Z,16.387096774193612
2023-03-23T22:26:53.000Z,16.09677419354845
2023-03-23T22:29:36.000Z,15.903225806451672
2023-03-23T22:32:20.000Z,15.806451612903285
2023-03-23T22:35:08.000Z,16.483870967742
2023-03-23T22:37:51.000Z,16.193548387096836
2023-03-23T22:40:37.000Z,17.35483870967749
2023-03-23T22:43:22.000Z,19.000000000000085
2023-03-23T22:46:03.000Z,12.516129032258096
2023-03-23T22:48:44.000Z,10.290322580645174
2023-03-23T22:51:26.000Z,11.258064516129053
2023-03-23T22:54:18.000Z,16.87096774193555
2023-03-23T22:56:59.000Z,16.290322580645224
2023-03-23T23:00:05.000Z,16.09677419354845
2023-03-23T23:03:05.000Z,15.903225806451672
2023-03-23T23:06:00.000Z,15.806451612903285
2023-03-23T23:08:41.000Z,16.00000000000006
2023-03-23T23:11:21.000Z,15.903225806451672
2023-03-23T23:14:04.000Z,16.193548387096836
2023-03-23T23:16:42.000Z,16.290322580645224
2023-03-23T23:19:24.000Z,16.483870967742
2023-03-23T23:22:06.000Z,16.09677419354845
2023-03-23T23:24:50.000Z,16.483870967742
2023-03-23T23:27:34.000Z,16.580645161290388
2023-03-23T23:30:16.000Z,16.387096774193612
2023-03-23T23:32:57.000Z,16.193548387096836
2023-03-23T23:35:38.000Z,16.00000000000006
2023-03-23T23:38:19.000Z,15.612903225806509
2023-03-23T23:41:02.000Z,15.419354838709733
2023-03-23T23:43:43.000Z,15.322580645161345
2023-03-23T23:46:27.000Z,15.225806451612957
2023-03-23T23:49:11.000Z,15.225806451612957
2023-03-23T23:51:58.000Z,15.419354838709733
2023-03-23T23:54:42.000Z,15.419354838709733
2023-03-23T23:57:24.000Z,15.419354838709733
